sensor_id;sensor_type;location;lat;lon;timestamp;pressure;altitude;pressure_sealevel;temperature;humidity
53262;BME280;39658;51.090;-1.786;2023-04-26T00:01:16;101008.41;;;3.01;100.00
53262;BME280;39658;51.090;-1.786;2023-04-26T00:03:43;101011.25;;;2.95;100.00
53262;BME280;39658;51.090;-1.786;2023-04-26T00:06:12;101010.41;;;2.93;100.00
53262;BME280;39658;51.090;-1.786;2023-04-26T00:08:39;101019.28;;;2.87;100.00
53262;BME280;39658;51.090;-1.786;2023-04-26T00:11:06;101003.78;;;2.83;100.00
53262;BME280;39658;51.090;-1.786;2023-04-26T00:13:33;101012.53;;;2.80;100.00
53262;BME280;39658;51.090;-1.786;2023-04-26T00:16:01;101012.66;;;2.76;100.00
53262;BME280;39658;51.090;-1.786;2023-04-26T00:18:28;101003.19;;;2.73;100.00
53262;BME280;39658;51.090;-1.786;2023-04-26T00:20:55;101005.75;;;2.75;100.00
53262;BME280;39658;51.090;-1.786;2023-04-26T00:23:24;100993.47;;;2.80;100.00
53262;BME280;39658;51.090;-1.786;2023-04-26T00:25:50;100999.41;;;2.83;100.00
53262;BME280;39658;51.090;-1.786;2023-04-26T00:28:17;100998.50;;;2.86;100.00
53262;BME280;39658;51.090;-1.786;2023-04-26T00:30:44;100979.28;;;2.88;100.00
53262;BME280;39658;51.090;-1.786;2023-04-26T00:33:13;100980.16;;;2.89;100.00
53262;BME280;39658;51.090;-1.786;2023-04-26T00:35:40;100963.72;;;2.87;100.00
53262;BME280;39658;51.090;-1.786;2023-04-26T00:38:06;100960.09;;;2.93;100.00
53262;BME280;39658;51.090;-1.786;2023-04-26T00:40:34;100945.84;;;3.03;100.00
53262;BME280;39658;51.090;-1.786;2023-04-26T00:43:02;100937.09;;;3.05;100.00
53262;BME280;39658;51.090;-1.786;2023-04-26T00:45:29;100938.81;;;3.07;100.00
53262;BME280;39658;51.090;-1.786;2023-04-26T00:47:57;100937.84;;;3.09;100.00
53262;BME280;39658;51.090;-1.786;2023-04-26T00:50:24;100940.34;;;3.12;100.00
53262;BME280;39658;51.090;-1.786;2023-04-26T00:52:51;100936.66;;;3.19;100.00
53262;BME280;39658;51.090;-1.786;2023-04-26T00:55:19;100939.09;;;3.26;100.00
53262;BME280;39658;51.090;-1.786;2023-04-26T00:57:48;100940.69;;;3.30;100.00
53262;BME280;39658;51.090;-1.786;2023-04-26T01:00:15;100930.13;;;3.34;100.00
53262;BME280;39658;51.090;-1.786;2023-04-26T01:02:42;100930.78;;;3.41;100.00
53262;BME280;39658;51.090;-1.786;2023-04-26T01:05:09;100932.19;;;3.51;100.00
53262;BME280;39658;51.090;-1.786;2023-04-26T01:07:37;100942.66;;;3.50;100.00
53262;BME280;39658;51.090;-1.786;2023-04-26T01:10:04;100935.56;;;3.53;100.00
53262;BME280;39658;51.090;-1.786;2023-04-26T01:12:33;100941.44;;;3.60;100.00
53262;BME280;39658;51.090;-1.786;2023-04-26T01:15:03;100941.44;;;3.60;100.00
53262;BME280;39658;51.090;-1.786;2023-04-26T01:17:30;100930.16;;;3.59;100.00
53262;BME280;39658;51.090;-1.786;2023-04-26T01:19:57;100935.97;;;3.68;100.00
53262;BME280;39658;51.090;-1.786;2023-04-26T01:22:24;100937.63;;;3.70;100.00
53262;BME280;39658;51.090;-1.786;2023-04-26T01:24:54;100942.84;;;3.70;100.00
53262;BME280;39658;51.090;-1.786;2023-04-26T01:27:23;100955.03;;;3.70;100.00
53262;BME280;39658;51.090;-1.786;2023-04-26T01:29:49;100960.25;;;3.70;100.00
53262;BME280;39658;51.090;-1.786;2023-04-26T01:32:16;100955.97;;;3.67;100.00
53262;BME280;39658;51.090;-1.786;2023-04-26T01:34:43;100954.41;;;3.62;100.00
53262;BME280;39658;51.090;-1.786;2023-04-26T01:37:10;100946.75;;;3.57;100.00
53262;BME280;39658;51.090;-1.786;2023-04-26T01:39:37;100938.28;;;3.50;100.00
53262;BME280;39658;51.090;-1.786;2023-04-26T01:42:05;100933.16;;;3.47;100.00
53262;BME280;39658;51.090;-1.786;2023-04-26T01:44:32;100925.50;;;3.42;100.00
53262;BME280;39658;51.090;-1.786;2023-04-26T01:46:59;100922.16;;;3.39;100.00
53262;BME280;39658;51.090;-1.786;2023-04-26T01:49:26;100918.72;;;3.37;100.00
53262;BME280;39658;51.090;-1.786;2023-04-26T01:51:53;100924.66;;;3.42;100.00
53262;BME280;39658;51.090;-1.786;2023-04-26T01:54:20;100925.19;;;3.52;100.00
53262;BME280;39658;51.090;-1.786;2023-04-26T01:56:47;100930.78;;;3.66;100.00
53262;BME280;39658;51.090;-1.786;2023-04-26T01:59:15;100927.81;;;3.77;100.00
53262;BME280;39658;51.090;-1.786;2023-04-26T02:01:41;100919.25;;;3.99;100.00
53262;BME280;39658;51.090;-1.786;2023-04-26T02:04:08;100935.38;;;4.10;100.00
53262;BME280;39658;51.090;-1.786;2023-04-26T02:06:35;100932.47;;;4.18;100.00
53262;BME280;39658;51.090;-1.786;2023-04-26T02:09:02;100944.78;;;4.14;100.00
53262;BME280;39658;51.090;-1.786;2023-04-26T02:11:29;100947.41;;;4.14;100.00
53262;BME280;39658;51.090;-1.786;2023-04-26T02:13:56;100940.81;;;4.04;100.00
53262;BME280;39658;51.090;-1.786;2023-04-26T02:16:24;100933.34;;;3.93;100.00
53262;BME280;39658;51.090;-1.786;2023-04-26T02:18:51;100927.63;;;3.83;100.00
53262;BME280;39658;51.090;-1.786;2023-04-26T02:21:19;100921.88;;;3.73;100.00
53262;BME280;39658;51.090;-1.786;2023-04-26T02:23:46;100923.78;;;3.68;100.00
53262;BME280;39658;51.090;-1.786;2023-04-26T02:26:14;100918.63;;;3.67;100.00
53262;BME280;39658;51.090;-1.786;2023-04-26T02:28:41;100918.88;;;3.59;100.00
53262;BME280;39658;51.090;-1.786;2023-04-26T02:31:07;100914.63;;;3.56;100.00
53262;BME280;39658;51.090;-1.786;2023-04-26T02:33:36;100899.06;;;3.53;100.00
53262;BME280;39658;51.090;-1.786;2023-04-26T02:36:04;100898.25;;;3.53;100.00
53262;BME280;39658;51.090;-1.786;2023-04-26T02:38:32;100898.28;;;3.51;100.00
53262;BME280;39658;51.090;-1.786;2023-04-26T02:40:59;100902.78;;;3.46;100.00
53262;BME280;39658;51.090;-1.786;2023-04-26T02:43:26;100904.69;;;3.41;100.00
53262;BME280;39658;51.090;-1.786;2023-04-26T02:45:53;100898.03;;;3.32;100.00
53262;BME280;39658;51.090;-1.786;2023-04-26T02:48:20;100896.66;;;3.22;100.00
53262;BME280;39658;51.090;-1.786;2023-04-26T02:50:48;100895.91;;;3.17;100.00
53262;BME280;39658;51.090;-1.786;2023-04-26T02:53:14;100904.66;;;3.16;100.00
53262;BME280;39658;51.090;-1.786;2023-04-26T02:55:42;100901.91;;;3.20;100.00
53262;BME280;39658;51.090;-1.786;2023-04-26T02:58:09;100891.44;;;3.22;100.00
53262;BME280;39658;51.090;-1.786;2023-04-26T03:00:35;100886.22;;;3.22;100.00
53262;BME280;39658;51.090;-1.786;2023-04-26T03:03:02;100883.56;;;3.23;100.00
53262;BME280;39658;51.090;-1.786;2023-04-26T03:05:29;100873.88;;;3.27;100.00
53262;BME280;39658;51.090;-1.786;2023-04-26T03:07:57;100876.34;;;3.32;100.00
53262;BME280;39658;51.090;-1.786;2023-04-26T03:10:24;100864.97;;;3.34;100.00
53262;BME280;39658;51.090;-1.786;2023-04-26T03:12:50;100862.38;;;3.34;100.00
53262;BME280;39658;51.090;-1.786;2023-04-26T03:15:17;100865.03;;;3.33;100.00
53262;BME280;39658;51.090;-1.786;2023-04-26T03:17:44;100841.78;;;3.27;100.00
53262;BME280;39658;51.090;-1.786;2023-04-26T03:20:11;100851.94;;;3.34;100.00
53262;BME280;39658;51.090;-1.786;2023-04-26T03:22:38;100845.81;;;3.35;100.00
53262;BME280;39658;51.090;-1.786;2023-04-26T03:25:07;100846.56;;;3.39;100.00
53262;BME280;39658;51.090;-1.786;2023-04-26T03:27:33;100836.25;;;3.36;100.00
53262;BME280;39658;51.090;-1.786;2023-04-26T03:30:00;100830.72;;;3.45;100.00
53262;BME280;39658;51.090;-1.786;2023-04-26T03:32:28;100828.00;;;3.48;100.00
53262;BME280;39658;51.090;-1.786;2023-04-26T03:34:55;100830.56;;;3.50;100.00
53262;BME280;39658;51.090;-1.786;2023-04-26T03:37:22;100835.56;;;3.56;100.00
53262;BME280;39658;51.090;-1.786;2023-04-26T03:39:48;100827.63;;;3.59;100.00
53262;BME280;39658;51.090;-1.786;2023-04-26T03:42:19;100821.34;;;3.65;100.00
53262;BME280;39658;51.090;-1.786;2023-04-26T03:44:46;100826.44;;;3.68;100.00
53262;BME280;39658;51.090;-1.786;2023-04-26T03:47:13;100822.88;;;3.70;100.00
53262;BME280;39658;51.090;-1.786;2023-04-26T03:49:40;100810.63;;;3.72;100.00
53262;BME280;39658;51.090;-1.786;2023-04-26T03:52:06;100814.78;;;3.78;100.00
53262;BME280;39658;51.090;-1.786;2023-04-26T03:54:33;100812.91;;;3.82;100.00
53262;BME280;39658;51.090;-1.786;2023-04-26T03:57:00;100810.13;;;3.86;100.00
53262;BME280;39658;51.090;-1.786;2023-04-26T03:59:28;100809.06;;;3.92;100.00
53262;BME280;39658;51.090;-1.786;2023-04-26T04:01:55;100809.84;;;3.94;100.00
53262;BME280;39658;51.090;-1.786;2023-04-26T04:04:22;100816.59;;;4.00;100.00
53262;BME280;39658;51.090;-1.786;2023-04-26T04:06:48;100806.06;;;4.03;100.00
53262;BME280;39658;51.090;-1.786;2023-04-26T04:09:15;100804.13;;;4.08;100.00
53262;BME280;39658;51.090;-1.786;2023-04-26T04:11:42;100801.22;;;4.16;100.00
53262;BME280;39658;51.090;-1.786;2023-04-26T04:14:09;100812.38;;;4.19;100.00
53262;BME280;39658;51.090;-1.786;2023-04-26T04:16:37;100801.75;;;4.24;100.00
53262;BME280;39658;51.090;-1.786;2023-04-26T04:19:04;100799.78;;;4.30;100.00
53262;BME280;39658;51.090;-1.786;2023-04-26T04:21:31;100803.84;;;4.38;100.00
53262;BME280;39658;51.090;-1.786;2023-04-26T04:23:59;100802.72;;;4.45;100.00
53262;BME280;39658;51.090;-1.786;2023-04-26T04:26:26;100808.47;;;4.53;100.00
53262;BME280;39658;51.090;-1.786;2023-04-26T04:28:53;100812.66;;;4.57;100.00
53262;BME280;39658;51.090;-1.786;2023-04-26T04:31:20;100806.56;;;4.57;100.00
53262;BME280;39658;51.090;-1.786;2023-04-26T04:33:48;100806.69;;;4.54;100.00
53262;BME280;39658;51.090;-1.786;2023-04-26T04:36:15;100800.34;;;4.61;100.00
53262;BME280;39658;51.090;-1.786;2023-04-26T04:38:42;100802.03;;;4.62;100.00
53262;BME280;39658;51.090;-1.786;2023-04-26T04:41:09;100803.78;;;4.61;100.00
53262;BME280;39658;51.090;-1.786;2023-04-26T04:43:36;100804.47;;;4.66;100.00
53262;BME280;39658;51.090;-1.786;2023-04-26T04:46:03;100810.72;;;4.62;100.00
53262;BME280;39658;51.090;-1.786;2023-04-26T04:48:30;100814.34;;;4.58;100.00
53262;BME280;39658;51.090;-1.786;2023-04-26T04:50:59;100811.84;;;4.55;100.00
53262;BME280;39658;51.090;-1.786;2023-04-26T04:53:26;100801.34;;;4.57;100.00
53262;BME280;39658;51.090;-1.786;2023-04-26T04:55:53;100808.28;;;4.58;100.00
53262;BME280;39658;51.090;-1.786;2023-04-26T04:58:20;100813.50;;;4.58;100.00
53262;BME280;39658;51.090;-1.786;2023-04-26T05:00:47;100817.03;;;4.57;100.00
53262;BME280;39658;51.090;-1.786;2023-04-26T05:03:15;100815.16;;;4.60;100.00
53262;BME280;39658;51.090;-1.786;2023-04-26T05:05:41;100819.44;;;4.61;100.00
53262;BME280;39658;51.090;-1.786;2023-04-26T05:08:10;100826.44;;;4.61;100.00
53262;BME280;39658;51.090;-1.786;2023-04-26T05:10:36;100822.00;;;4.63;100.00
53262;BME280;39658;51.090;-1.786;2023-04-26T05:13:03;100821.94;;;4.64;100.00
53262;BME280;39658;51.090;-1.786;2023-04-26T05:15:31;100826.19;;;4.67;100.00
53262;BME280;39658;51.090;-1.786;2023-04-26T05:17:57;100836.53;;;4.70;100.00
53262;BME280;39658;51.090;-1.786;2023-04-26T05:20:24;100830.28;;;4.74;100.00
53262;BME280;39658;51.090;-1.786;2023-04-26T05:22:51;100827.59;;;4.76;100.00
53262;BME280;39658;51.090;-1.786;2023-04-26T05:25:19;100824.81;;;4.80;100.00
53262;BME280;39658;51.090;-1.786;2023-04-26T05:27:46;100826.63;;;4.78;100.00
53262;BME280;39658;51.090;-1.786;2023-04-26T05:30:13;100824.00;;;4.78;100.00
53262;BME280;39658;51.090;-1.786;2023-04-26T05:32:40;100824.81;;;4.80;100.00
53262;BME280;39658;51.090;-1.786;2023-04-26T05:35:07;100823.81;;;4.83;100.00
53262;BME280;39658;51.090;-1.786;2023-04-26T05:37:34;100830.56;;;4.89;100.00
53262;BME280;39658;51.090;-1.786;2023-04-26T05:40:01;100827.06;;;4.90;100.00
53262;BME280;39658;51.090;-1.786;2023-04-26T05:42:30;100840.06;;;4.91;100.00
53262;BME280;39658;51.090;-1.786;2023-04-26T05:44:57;100843.19;;;4.99;100.00
53262;BME280;39658;51.090;-1.786;2023-04-26T05:47:24;100844.97;;;4.99;100.00
53262;BME280;39658;51.090;-1.786;2023-04-26T05:49:51;100841.56;;;4.97;100.00
53262;BME280;39658;51.090;-1.786;2023-04-26T05:52:17;100850.19;;;4.99;100.00
53262;BME280;39658;51.090;-1.786;2023-04-26T05:54:44;100849.94;;;5.05;100.00
53262;BME280;39658;51.090;-1.786;2023-04-26T05:57:11;100854.38;;;5.03;100.00
53262;BME280;39658;51.090;-1.786;2023-04-26T05:59:40;100850.00;;;5.03;100.00
53262;BME280;39658;51.090;-1.786;2023-04-26T06:02:07;100850.00;;;5.03;100.00
53262;BME280;39658;51.090;-1.786;2023-04-26T06:04:34;100851.63;;;5.06;100.00
53262;BME280;39658;51.090;-1.786;2023-04-26T06:07:00;100843.66;;;5.09;100.00
53262;BME280;39658;51.090;-1.786;2023-04-26T06:09:30;100843.53;;;5.12;100.00
53262;BME280;39658;51.090;-1.786;2023-04-26T06:11:56;100839.00;;;5.17;100.00
53262;BME280;39658;51.090;-1.786;2023-04-26T06:14:23;100832.06;;;5.16;100.00
53262;BME280;39658;51.090;-1.786;2023-04-26T06:16:51;100835.69;;;5.33;100.00
53262;BME280;39658;51.090;-1.786;2023-04-26T06:19:18;100835.50;;;5.37;100.00
53262;BME280;39658;51.090;-1.786;2023-04-26T06:21:45;100831.53;;;5.49;100.00
53262;BME280;39658;51.090;-1.786;2023-04-26T06:24:13;100826.88;;;5.56;100.00
53262;BME280;39658;51.090;-1.786;2023-04-26T06:26:40;100829.34;;;5.59;100.00
53262;BME280;39658;51.090;-1.786;2023-04-26T06:29:06;100828.31;;;5.63;100.00
53262;BME280;39658;51.090;-1.786;2023-04-26T06:31:33;100827.78;;;5.75;100.00
53262;BME280;39658;51.090;-1.786;2023-04-26T06:34:01;100826.34;;;5.89;100.00
53262;BME280;39658;51.090;-1.786;2023-04-26T06:36:28;100819.88;;;5.96;100.00
53262;BME280;39658;51.090;-1.786;2023-04-26T06:38:55;100811.72;;;6.04;100.00
53262;BME280;39658;51.090;-1.786;2023-04-26T06:41:22;100810.25;;;6.17;100.00
53262;BME280;39658;51.090;-1.786;2023-04-26T06:43:49;100814.19;;;6.26;100.00
53262;BME280;39658;51.090;-1.786;2023-04-26T06:46:15;100821.09;;;6.46;100.00
53262;BME280;39658;51.090;-1.786;2023-04-26T06:48:42;100825.22;;;6.52;100.00
53262;BME280;39658;51.090;-1.786;2023-04-26T06:51:10;100824.38;;;6.51;100.00
53262;BME280;39658;51.090;-1.786;2023-04-26T06:53:37;100822.31;;;6.58;100.00
53262;BME280;39658;51.090;-1.786;2023-04-26T06:56:04;100824.84;;;6.59;100.00
53262;BME280;39658;51.090;-1.786;2023-04-26T06:58:31;100824.50;;;6.67;100.00
53262;BME280;39658;51.090;-1.786;2023-04-26T07:00:58;100825.91;;;6.74;100.00
53262;BME280;39658;51.090;-1.786;2023-04-26T07:03:25;100820.91;;;6.87;100.00
53262;BME280;39658;51.090;-1.786;2023-04-26T07:05:54;100825.41;;;7.03;100.00
53262;BME280;39658;51.090;-1.786;2023-04-26T07:08:22;100820.91;;;7.22;100.00
53262;BME280;39658;51.090;-1.786;2023-04-26T07:10:49;100826.53;;;7.49;100.00
53262;BME280;39658;51.090;-1.786;2023-04-26T07:13:16;100825.28;;;7.74;100.00
53262;BME280;39658;51.090;-1.786;2023-04-26T07:15:42;100823.03;;;8.00;100.00
53262;BME280;39658;51.090;-1.786;2023-04-26T07:18:09;100833.97;;;8.08;100.00
53262;BME280;39658;51.090;-1.786;2023-04-26T07:20:36;100840.31;;;8.04;100.00
53262;BME280;39658;51.090;-1.786;2023-04-26T07:23:03;100855.72;;;7.94;100.00
53262;BME280;39658;51.090;-1.786;2023-04-26T07:25:31;100845.16;;;7.78;100.00
53262;BME280;39658;51.090;-1.786;2023-04-26T07:27:59;100852.94;;;7.80;100.00
53262;BME280;39658;51.090;-1.786;2023-04-26T07:30:26;100842.94;;;7.70;100.00
53262;BME280;39658;51.090;-1.786;2023-04-26T07:32:52;100843.97;;;7.68;100.00
53262;BME280;39658;51.090;-1.786;2023-04-26T07:35:19;100844.81;;;7.68;100.00
53262;BME280;39658;51.090;-1.786;2023-04-26T07:37:46;100839.72;;;7.65;100.00
53262;BME280;39658;51.090;-1.786;2023-04-26T07:40:13;100843.88;;;7.69;100.00
53262;BME280;39658;51.090;-1.786;2023-04-26T07:42:41;100845.00;;;7.81;100.00
53262;BME280;39658;51.090;-1.786;2023-04-26T07:45:09;100849.56;;;7.78;100.00
53262;BME280;39658;51.090;-1.786;2023-04-26T07:47:36;100847.31;;;7.87;100.00
53262;BME280;39658;51.090;-1.786;2023-04-26T07:50:03;100845.47;;;7.89;100.00
53262;BME280;39658;51.090;-1.786;2023-04-26T07:52:30;100844.28;;;7.95;100.00
53262;BME280;39658;51.090;-1.786;2023-04-26T07:54:57;100843.88;;;8.03;100.00
53262;BME280;39658;51.090;-1.786;2023-04-26T07:57:24;100845.16;;;8.12;100.00
53262;BME280;39658;51.090;-1.786;2023-04-26T07:59:52;100846.28;;;8.23;100.00
53262;BME280;39658;51.090;-1.786;2023-04-26T08:02:19;100849.94;;;8.37;100.00
53262;BME280;39658;51.090;-1.786;2023-04-26T08:04:47;100847.84;;;8.43;100.00
53262;BME280;39658;51.090;-1.786;2023-04-26T08:07:17;100852.78;;;8.66;100.00
53262;BME280;39658;51.090;-1.786;2023-04-26T08:09:44;100851.47;;;8.73;100.00
53262;BME280;39658;51.090;-1.786;2023-04-26T08:12:10;100852.25;;;8.75;100.00
53262;BME280;39658;51.090;-1.786;2023-04-26T08:14:37;100858.59;;;8.71;100.00
53262;BME280;39658;51.090;-1.786;2023-04-26T08:17:06;100851.38;;;8.74;100.00
53262;BME280;39658;51.090;-1.786;2023-04-26T08:19:33;100847.56;;;8.80;100.00
53262;BME280;39658;51.090;-1.786;2023-04-26T08:22:00;100842.72;;;8.88;100.00
53262;BME280;39658;51.090;-1.786;2023-04-26T08:24:28;100855.44;;;8.96;100.00
53262;BME280;39658;51.090;-1.786;2023-04-26T08:26:55;100853.59;;;8.98;100.00
53262;BME280;39658;51.090;-1.786;2023-04-26T08:29:22;100869.44;;;8.96;100.00
53262;BME280;39658;51.090;-1.786;2023-04-26T08:31:49;100862.75;;;8.91;100.00
53262;BME280;39658;51.090;-1.786;2023-04-26T08:34:18;100871.56;;;8.74;100.00
53262;BME280;39658;51.090;-1.786;2023-04-26T08:36:44;100872.34;;;8.60;100.00
53262;BME280;39658;51.090;-1.786;2023-04-26T08:39:11;100870.06;;;8.54;100.00
53262;BME280;39658;51.090;-1.786;2023-04-26T08:41:43;100870.38;;;8.63;100.00
53262;BME280;39658;51.090;-1.786;2023-04-26T08:44:11;100863.09;;;8.85;100.00
53262;BME280;39658;51.090;-1.786;2023-04-26T08:46:45;100860.91;;;9.07;100.00
53262;BME280;39658;51.090;-1.786;2023-04-26T08:49:26;100862.94;;;9.18;100.00
53262;BME280;39658;51.090;-1.786;2023-04-26T08:51:58;100855.84;;;9.34;100.00
53262;BME280;39658;51.090;-1.786;2023-04-26T08:54:26;100860.47;;;9.45;100.00
53262;BME280;39658;51.090;-1.786;2023-04-26T08:56:54;100859.56;;;9.61;100.00
53262;BME280;39658;51.090;-1.786;2023-04-26T08:59:24;100862.31;;;9.74;100.00
53262;BME280;39658;51.090;-1.786;2023-04-26T09:01:52;100864.97;;;10.02;100.00
53262;BME280;39658;51.090;-1.786;2023-04-26T09:04:20;100874.06;;;10.11;100.00
53262;BME280;39658;51.090;-1.786;2023-04-26T09:06:48;100866.28;;;10.24;100.00
53262;BME280;39658;51.090;-1.786;2023-04-26T09:09:17;100866.56;;;10.34;100.00
53262;BME280;39658;51.090;-1.786;2023-04-26T09:11:54;100868.78;;;10.54;100.00
53262;BME280;39658;51.090;-1.786;2023-04-26T09:14:22;100872.69;;;10.76;100.00
53262;BME280;39658;51.090;-1.786;2023-04-26T09:16:49;100875.56;;;10.86;100.00
53262;BME280;39658;51.090;-1.786;2023-04-26T09:19:16;100863.50;;;10.96;100.00
53262;BME280;39658;51.090;-1.786;2023-04-26T09:21:45;100860.44;;;11.02;100.00
53262;BME280;39658;51.090;-1.786;2023-04-26T09:24:12;100874.34;;;11.19;100.00
53262;BME280;39658;51.090;-1.786;2023-04-26T09:26:39;100872.59;;;11.58;100.00
53262;BME280;39658;51.090;-1.786;2023-04-26T09:29:17;100881.03;;;11.50;100.00
53262;BME280;39658;51.090;-1.786;2023-04-26T09:31:46;100889.91;;;11.49;100.00
53262;BME280;39658;51.090;-1.786;2023-04-26T09:34:13;100886.34;;;11.63;100.00
53262;BME280;39658;51.090;-1.786;2023-04-26T09:36:56;100880.75;;;11.67;100.00
53262;BME280;39658;51.090;-1.786;2023-04-26T09:39:37;100881.81;;;12.03;100.00
53262;BME280;39658;51.090;-1.786;2023-04-26T09:42:05;100889.84;;;12.02;100.00
53262;BME280;39658;51.090;-1.786;2023-04-26T09:44:32;100891.63;;;12.77;100.00
53262;BME280;39658;51.090;-1.786;2023-04-26T09:47:00;100876.31;;;13.18;100.00
53262;BME280;39658;51.090;-1.786;2023-04-26T09:49:29;100870.78;;;13.56;100.00
53262;BME280;39658;51.090;-1.786;2023-04-26T09:52:03;100885.88;;;13.78;100.00
53262;BME280;39658;51.090;-1.786;2023-04-26T09:54:41;100883.00;;;13.81;100.00
53262;BME280;39658;51.090;-1.786;2023-04-26T09:57:08;100891.19;;;14.01;100.00
53262;BME280;39658;51.090;-1.786;2023-04-26T09:59:39;100889.28;;;14.03;100.00
53262;BME280;39658;51.090;-1.786;2023-04-26T10:02:10;100901.44;;;13.83;100.00
53262;BME280;39658;51.090;-1.786;2023-04-26T10:04:39;100901.22;;;13.51;100.00
53262;BME280;39658;51.090;-1.786;2023-04-26T10:07:08;100903.38;;;12.97;100.00
53262;BME280;39658;51.090;-1.786;2023-04-26T10:09:35;100897.06;;;13.11;100.00
53262;BME280;39658;51.090;-1.786;2023-04-26T10:12:03;100897.97;;;13.23;100.00
53262;BME280;39658;51.090;-1.786;2023-04-26T10:14:30;100900.28;;;13.27;100.00
53262;BME280;39658;51.090;-1.786;2023-04-26T10:16:57;100896.56;;;12.82;100.00
53262;BME280;39658;51.090;-1.786;2023-04-26T10:19:24;100901.84;;;12.57;100.00
53262;BME280;39658;51.090;-1.786;2023-04-26T10:21:52;100897.31;;;12.47;100.00
53262;BME280;39658;51.090;-1.786;2023-04-26T10:24:23;100888.56;;;12.70;100.00
53262;BME280;39658;51.090;-1.786;2023-04-26T10:26:52;100894.34;;;12.51;100.00
53262;BME280;39658;51.090;-1.786;2023-04-26T10:29:22;100889.88;;;12.89;100.00
53262;BME280;39658;51.090;-1.786;2023-04-26T10:32:06;100893.13;;;13.17;100.00
53262;BME280;39658;51.090;-1.786;2023-04-26T10:34:35;100887.94;;;12.91;100.00
53262;BME280;39658;51.090;-1.786;2023-04-26T10:37:06;100894.84;;;13.18;100.00
53262;BME280;39658;51.090;-1.786;2023-04-26T10:39:35;100890.22;;;13.08;100.00
53262;BME280;39658;51.090;-1.786;2023-04-26T10:42:23;100899.59;;;12.64;100.00
53262;BME280;39658;51.090;-1.786;2023-04-26T10:44:51;100899.97;;;12.84;100.00
53262;BME280;39658;51.090;-1.786;2023-04-26T10:47:26;100885.91;;;13.90;100.00
53262;BME280;39658;51.090;-1.786;2023-04-26T10:50:01;100894.78;;;13.89;100.00
53262;BME280;39658;51.090;-1.786;2023-04-26T10:52:30;100891.25;;;13.65;100.00
53262;BME280;39658;51.090;-1.786;2023-04-26T10:54:58;100885.94;;;13.54;100.00
53262;BME280;39658;51.090;-1.786;2023-04-26T10:57:49;100879.13;;;13.63;100.00
53262;BME280;39658;51.090;-1.786;2023-04-26T11:00:17;100887.06;;;13.74;100.00
53262;BME280;39658;51.090;-1.786;2023-04-26T11:02:52;100881.31;;;13.92;100.00
53262;BME280;39658;51.090;-1.786;2023-04-26T11:05:38;100872.63;;;14.01;100.00
53262;BME280;39658;51.090;-1.786;2023-04-26T11:08:08;100886.72;;;13.68;100.00
53262;BME280;39658;51.090;-1.786;2023-04-26T11:10:42;100882.28;;;13.91;100.00
53262;BME280;39658;51.090;-1.786;2023-04-26T11:13:09;100889.03;;;14.51;100.00
53262;BME280;39658;51.090;-1.786;2023-04-26T11:15:37;100890.50;;;15.53;100.00
53262;BME280;39658;51.090;-1.786;2023-04-26T11:18:04;100889.53;;;15.75;100.00
53262;BME280;39658;51.090;-1.786;2023-04-26T11:20:31;100902.97;;;14.87;100.00
53262;BME280;39658;51.090;-1.786;2023-04-26T11:22:59;100906.97;;;14.03;100.00
53262;BME280;39658;51.090;-1.786;2023-04-26T11:25:27;100904.00;;;13.25;100.00
53262;BME280;39658;51.090;-1.786;2023-04-26T11:28:02;100900.16;;;13.29;100.00
53262;BME280;39658;51.090;-1.786;2023-04-26T11:30:29;100892.75;;;13.34;100.00
53262;BME280;39658;51.090;-1.786;2023-04-26T11:32:57;100901.13;;;13.52;100.00
53262;BME280;39658;51.090;-1.786;2023-04-26T11:35:24;100902.03;;;13.16;100.00
53262;BME280;39658;51.090;-1.786;2023-04-26T11:37:51;100905.53;;;13.40;100.00
53262;BME280;39658;51.090;-1.786;2023-04-26T11:40:18;100904.22;;;13.93;100.00
53262;BME280;39658;51.090;-1.786;2023-04-26T11:42:46;100901.22;;;14.20;100.00
53262;BME280;39658;51.090;-1.786;2023-04-26T11:45:17;100906.16;;;14.02;100.00
53262;BME280;39658;51.090;-1.786;2023-04-26T11:47:45;100916.75;;;13.91;100.00
53262;BME280;39658;51.090;-1.786;2023-04-26T11:50:13;100920.69;;;13.38;100.00
53262;BME280;39658;51.090;-1.786;2023-04-26T11:52:40;100924.31;;;13.00;100.00
53262;BME280;39658;51.090;-1.786;2023-04-26T11:55:08;100913.91;;;12.86;100.00
53262;BME280;39658;51.090;-1.786;2023-04-26T11:57:35;100915.59;;;13.11;100.00
53262;BME280;39658;51.090;-1.786;2023-04-26T12:00:09;100915.09;;;13.30;100.00
53262;BME280;39658;51.090;-1.786;2023-04-26T12:02:44;100898.81;;;13.48;100.00
53262;BME280;39658;51.090;-1.786;2023-04-26T12:05:20;100891.84;;;13.58;100.00
53262;BME280;39658;51.090;-1.786;2023-04-26T12:07:49;100885.78;;;13.91;100.00
53262;BME280;39658;51.090;-1.786;2023-04-26T12:10:18;100891.59;;;14.08;100.00
53262;BME280;39658;51.090;-1.786;2023-04-26T12:12:49;100888.66;;;13.77;100.00
53262;BME280;39658;51.090;-1.786;2023-04-26T12:15:16;100898.34;;;13.42;100.00
53262;BME280;39658;51.090;-1.786;2023-04-26T12:17:55;100896.13;;;13.36;100.00
53262;BME280;39658;51.090;-1.786;2023-04-26T12:20:29;100895.50;;;13.79;100.00
53262;BME280;39658;51.090;-1.786;2023-04-26T12:23:04;100893.25;;;13.97;100.00
53262;BME280;39658;51.090;-1.786;2023-04-26T12:25:33;100891.66;;;13.72;100.00
53262;BME280;39658;51.090;-1.786;2023-04-26T12:28:00;100882.59;;;13.63;100.00
53262;BME280;39658;51.090;-1.786;2023-04-26T12:30:28;100879.72;;;13.67;100.00
53262;BME280;39658;51.090;-1.786;2023-04-26T12:32:56;100901.03;;;13.65;100.00
53262;BME280;39658;51.090;-1.786;2023-04-26T12:35:23;100886.53;;;13.46;100.00
53262;BME280;39658;51.090;-1.786;2023-04-26T12:37:51;100903.97;;;13.38;100.00
53262;BME280;39658;51.090;-1.786;2023-04-26T12:40:21;100896.16;;;13.48;100.00
53262;BME280;39658;51.090;-1.786;2023-04-26T12:42:49;100896.78;;;13.62;100.00